Timeline UpdatesTrip UpdatesNews PostsPvt PostsTravel TipsAdmin PostsConv PostsFollowed PostsChat RequestsBlog PostsPNR Posts

Disclaimer
Search
 
 
Mon Sep 1, 2014 19:10:42 ISTHomeTrainsΣChainsAtlasPNRForumGalleryNewsFAQTripsMembersLoginFeedback
No Recent News for this Train
Other Trains in the News **new
Latest...
-
Tue May 27, 2014 (05:22PM)
⇐ Return Journey: Train# 16381

16382/Jayanti Janta Express

NO Time-Table Change.
Today (2:54PM)
Change Departure Station:
Change Arrival Station:
Post a Train Travel TipPost a Train Travel Tip **new
Post a Comment/Question/Picture/VideoPost a Comment/Question/Picture/Video
Pantry/Catering
✓ Pantry Car Avbl
✓ Catering Avbl
RSA - Rake Sharing
Rake/Coach Composition
CC : SLR- UR- S1- S2- S3- S4- PC- S5- S6- S7- S8- S9- S10- B1- A1- UR- SLRD = 17 Coaches.; jayarajcharan Entry# 674599; S5 to S8 De-reserved from CAPE - ERN & S9 - S10 De-reserved from CAPE to PGT.
Loco
CAPE-GTL: RPM/ED WAP4 / AJJ WAM-4 / WAP-1 GTL-PUNE: GY WDM...
Read more...
3A/3D/WDG-3A PUNE-CSTM: KYN WCAM 2P /3
News    PNR    Forum    Time-Table    Availability    Fare Chart    Map    Arr/Dep History    Trips    Gallery    ΣChains    X/O    Timeline    
Travel Time: 8h 25m    8 halts    Distance: 455 km    Avg Speed: 54 km/hr
Type: Mail/Express
Zone: SR/Southern
Departs @ 20:15 (Avg 37m late)
Platform# 4
SMTWTFS
Solapur/SUR 
Arrives @ 04:40 +1 night (Avg 3m late)
Platform# 11
SMTWTFS
Mumbai CST/CSTM 

8 halts. 95 intermediate Stations between Solapur and Mumbai CST

Show ALL intermediate Stations  

#CodeStation NameX/OArrivesAvgDepartsAvgHaltPFDay#KmSpeedElevZoneAddress
1CAPEKanniyakumari (3)  -06:55+311-1678.36238mSRKanyakumari, Tamil Nadu
2NCJNagercoil Junction (4)  07:10+307:15+45m11-1662.85822mSRNagercoil-629002, Tamil Nadu
3ERLEraniel (2)  07:34+507:35+71m--1-1644.66419mSRKanyakumari, Tamil Nadu
4KZTKulitturai  07:49+1007:50+111m--1-1629.75429mSRMarthandam, Tamil Nadu
5PASAParassala  08:01+1308:02+141m--1-1619.85445mSRParassala, Kerala
6NYYNeyyattinkaraX  08:14+1008:15+201m--1-1609.03011mSRThiruvananthapuram, Kerala
7TVCTrivandrum Central (5)  08:50+908:55+85m21-1591.87212mSRThiruvananthapuram 695001, Kerala
8CRYChirayinkeezhu (2)X  09:19+1609:20+161m--1-1563.03719mSRChirayinkeezhu, Kerala
9KVUKadakavur (3)  09:25+1609:26+171m--1-1559.96120mSRKadakkavoor, Kerala
10VAKVarkala Sivagiri (3)X  09:35+1809:36+181m--1-1550.87552mSREdava Kappil Road, Kerala
11PVUParavur (3)X  09:45+2009:46+201m--1-1539.55318mSRParavoor, Kerala
12QLNKollam Junction (6)X  10:00+1610:05+165m21-1527.16816mSRKollam 0474-2746194, Kerala
13KPYKarunagappalli (2)  10:29+2610:30+261m11-1500.05112mSRKollam Dist, Kerala
14KYJKayamkulam Junction (5)  10:46+2210:48+242m--1-1486.35111mSRAlappuzha Ph;0479-2442042, Kerala
15MVLKMavelikara (3)X  10:57+2610:58+311m21-1478.75813mSRMavelikkara Ph: 0479-2302249, Kerala
16CNGRChengannur (3)  11:11+1911:12+241m31-1466.1606mSRPh: 0479-2452340, Kerala
17TRVLTiruvalla (2)O  11:21+2611:22+291m21-1457.05227mSRPh: 0469-2601314, Kerala
18CGYChanganassery (3)XO  11:31+3111:32+381m--1-1449.23811mSRPh: 0481- 2420108, Kerala
19KTYMKottayam (3)X  12:00+2712:05+315m11-1431.34515mSRTel: 0481 2563535, Kerala
20ERNErnakulam Town (North) (2)X  13:25+1113:30+145m11-1371.4509mSRTel: 0484 2395198, Kerala
21AWYAluva (3)X  13:50+1613:52+162m31-1354.65512mSRPh: 0484-2624141, Kerala
22AFKAngamaly for Kalady (3)  14:02+1814:03+181m--1-1345.36116mSRPhone: 0484-2452340, Kerala
23CKIChalakkudy (3)X  14:18+2014:19+191m21-1330.1489mSRPh: 0480- 2701368, Kerala
24IJKIrinjalakkuda (2)X  14:27+2114:28+201m--1-1323.75318mSRKalletumkara, Kerala
25TCRThrissur (4)X  14:55+1614:58+163m21-1299.9586mSRThrissur Tel: 0487 2423150, Kerala
26WKIWadakkanchery (2)X  15:15+1615:16+171m21-1283.52940mSRWadackanchery, Kerala
27OTPOttappalam (2)  16:14+816:15+91m11-1255.95430mSROttapalam, Kerala
28PGTPalakkad Junction (4)  16:50+716:55+95m31-1224.15184mSRPalghat Tel: 0491 2555231, Kerala
29CBECoimbatore Main Junction (6)  18:00+518:05+85m41-1168.870416mSRCoimbatore 641001, Tamil Nadu
30TUPTiruppur (2)X  18:48+1218:50+122m21-1118.350305mSRTiruppur. Ph:0421-2200450, Tamil Nadu
31EDErode Junction (4)  19:50+620:00+1510m11-1068.167175mSRErode ph.no: 0424-2256111, Tamil Nadu
32SASalem Junction (6)X  20:55+1721:00+185m41-1006.853283mSRSalem, Tamil Nadu
33JTJJolarpettai Junction (5)X  23:15+723:20+85m--1-886.659405mSRJolarpettai, Tamil Nadu
34KPDKatpadi Junction (5)  00:45+200:50+175m42-802.743213mSRVellore 632007, Tamil Nadu
35PAKPakala Junction (3)X  02:19+1902:20+201m12-739.646371mSCRKavalivari Palle, Andhra Pradesh
36TPTYTirupati Main (5)X  03:15+103:20+35m12-697.830150mSCRChittoor Distt, Andhra Pradesh
37RURenigunta Junction (5)  03:40+403:50+1810m22-687.863113mSCRChittoor District, Andhra Pradesh
38KOUKoduru (2)  04:29+2904:30+301m--2-647.069215mSCRKadapa (YSR District), Andhra Pradesh
39RJPRazampeta (2)X  04:59+3105:00+311m--2-613.433144mSCRKadapa (YSR District), Andhra Pradesh
40NRENandalur  05:19+2905:20+291m--2-602.962143mSCRRayalaseema Region, Andhra Pradesh
41HXKadapa (3)  05:59+2106:00+241m32-562.381146mSCRCuddapah, Andhra Pradesh
42YAYerraguntla (2)  06:29+2106:30+211m12-523.349171mSCRKadapa / Cuddapah (YSR District), Andhra Pradesh
43KDPKondapuram (2)  07:19+207:20+101m--2-483.434214mSCRKadapa (YSR District), Andhra Pradesh
44TUTadipatri (3)X08:09+1608:10+161m22-455.445243mSCRAnantapuram Dist, Andhra Pradesh
45GYGooty Junction (2)  09:14+1209:15+191m22-407.338370mSCRNH 7 Anantapur District, Andhra Pradesh
46GTLGuntakal Junction (6)X10:00+610:15+1515m52-378.749453mSCRGuntakal. Tel: 08552-227131/32, Andhra Pradesh
47ADAdoni (4)  11:19+3311:20+351m32-326.742420mSCRAdoni Tel: 08512-252368, Andhra Pradesh
48MALMMantralayam Road (3)  12:19+3212:20+451m22-285.444335mSCRKurnool Tel: 08512-259830, Andhra Pradesh
49RCRaichur Junction (3)  12:59+3213:00+571m22-257.070406mSCRRaichur, Karnataka
50YGYadgir (3)  13:59+1:1214:00+1:361m22-188.511369mSCRYadgir, Karnataka
51WADIWadi Junction (4)X  17:35-217:40+105m42-149.465431mCRWadi, Karnataka
52GRGulbarga (4)  18:14+818:15+131m32-112.661458mCRGulbarga 585101, Karnataka
53SUR»Solapur (5)»X  20:05+3220:15+3710m420.053461mCRSolapur 413001, Maharashtra
54KWVKurduvadi Junction (4)X  21:44+1821:45+181m2279.072516mCRKurduvadi Dist-Solapur, Maharashtra
55DDDaund Junction (7)XO  23:15+1423:20+145m52186.960521mCRNew Daund Dist. Pune 413801, Maharashtra
56PUNEPune Junction (6)X00:35+800:50+1515m43262.560556mCRPune 411001, Maharashtra
57LNLLonavala (3)XO  01:54+701:55+101m23326.235623mCRLonavala 410401, Maharashtra
58KJTKarjat Junction (4)  02:44+802:45+101m23354.87257mCRKarjat, Maharashtra
59KYNKalyan Junction (8)  03:24+903:25+71m73401.76410mCRKalyan 421301, Maharashtra
60TNAThane (10)  03:44+1403:45+151m63421.95610mCRThane (West) 400602, Maharashtra
61DRMumbai Dadar Central (8)  04:11+804:12+81m53446.1187mCRMumbai 400014, Maharashtra
62CSTM•Mumbai CST (18)•  04:40+3-113454.7-10mCRMumbai 400001, Maharashtra
Scroll to Top
Scroll to Bottom